sensor_id;sensor_type;location;lat;lon;timestamp;temperature;humidity
610;DHT22;292;48.800;9.216;2022-10-31T00:00:43;16.40;81.30
610;DHT22;292;48.800;9.216;2022-10-31T00:03:10;16.40;81.30
610;DHT22;292;48.800;9.216;2022-10-31T00:05:40;16.40;81.30
610;DHT22;292;48.800;9.216;2022-10-31T00:08:07;16.40;81.00
610;DHT22;292;48.800;9.216;2022-10-31T00:10:38;16.40;80.70
610;DHT22;292;48.800;9.216;2022-10-31T00:13:05;16.30;80.60
610;DHT22;292;48.800;9.216;2022-10-31T00:15:33;16.30;80.60
610;DHT22;292;48.800;9.216;2022-10-31T00:18:00;16.30;80.60
610;DHT22;292;48.800;9.216;2022-10-31T00:20:27;16.20;80.60
610;DHT22;292;48.800;9.216;2022-10-31T00:22:58;16.20;80.70
610;DHT22;292;48.800;9.216;2022-10-31T00:25:25;16.20;80.60
610;DHT22;292;48.800;9.216;2022-10-31T00:27:54;16.10;80.70
610;DHT22;292;48.800;9.216;2022-10-31T00:30:21;16.10;80.90
610;DHT22;292;48.800;9.216;2022-10-31T00:32:48;16.00;81.20
610;DHT22;292;48.800;9.216;2022-10-31T00:35:16;16.00;81.40
610;DHT22;292;48.800;9.216;2022-10-31T00:37:42;15.90;81.40
610;DHT22;292;48.800;9.216;2022-10-31T00:40:11;15.90;81.60
610;DHT22;292;48.800;9.216;2022-10-31T00:42:39;15.90;81.70
610;DHT22;292;48.800;9.216;2022-10-31T00:45:09;15.90;81.70
610;DHT22;292;48.800;9.216;2022-10-31T00:47:37;15.90;81.70
610;DHT22;292;48.800;9.216;2022-10-31T00:50:04;15.90;81.70
610;DHT22;292;48.800;9.216;2022-10-31T00:52:32;15.80;81.90
610;DHT22;292;48.800;9.216;2022-10-31T00:54:59;15.80;82.00
610;DHT22;292;48.800;9.216;2022-10-31T00:57:26;15.70;82.10
610;DHT22;292;48.800;9.216;2022-10-31T00:59:53;15.70;82.10
610;DHT22;292;48.800;9.216;2022-10-31T01:02:21;15.60;82.20
610;DHT22;292;48.800;9.216;2022-10-31T01:04:48;15.50;82.20
610;DHT22;292;48.800;9.216;2022-10-31T01:07:15;15.40;82.60
610;DHT22;292;48.800;9.216;2022-10-31T01:09:42;15.40;82.80
610;DHT22;292;48.800;9.216;2022-10-31T01:12:09;15.40;82.90
610;DHT22;292;48.800;9.216;2022-10-31T01:14:36;15.30;82.90
610;DHT22;292;48.800;9.216;2022-10-31T01:17:03;15.30;82.90
610;DHT22;292;48.800;9.216;2022-10-31T01:19:32;15.30;83.10
610;DHT22;292;48.800;9.216;2022-10-31T01:21:59;15.30;83.20
610;DHT22;292;48.800;9.216;2022-10-31T01:24:26;15.20;83.20
610;DHT22;292;48.800;9.216;2022-10-31T01:26:53;15.20;83.40
610;DHT22;292;48.800;9.216;2022-10-31T01:29:20;15.10;83.50
610;DHT22;292;48.800;9.216;2022-10-31T01:31:47;15.00;83.60
610;DHT22;292;48.800;9.216;2022-10-31T01:34:15;15.00;83.80
610;DHT22;292;48.800;9.216;2022-10-31T01:36:45;14.90;83.90
610;DHT22;292;48.800;9.216;2022-10-31T01:39:14;14.80;84.40
610;DHT22;292;48.800;9.216;2022-10-31T01:41:43;14.80;84.50
610;DHT22;292;48.800;9.216;2022-10-31T01:44:48;14.70;84.70
610;DHT22;292;48.800;9.216;2022-10-31T01:47:19;14.70;84.90
610;DHT22;292;48.800;9.216;2022-10-31T01:49:48;14.60;84.90
610;DHT22;292;48.800;9.216;2022-10-31T01:52:21;14.60;85.10
610;DHT22;292;48.800;9.216;2022-10-31T01:54:53;14.60;85.10
610;DHT22;292;48.800;9.216;2022-10-31T01:57:21;14.70;85.10
610;DHT22;292;48.800;9.216;2022-10-31T01:59:50;14.70;85.10
610;DHT22;292;48.800;9.216;2022-10-31T02:02:19;14.60;85.10
610;DHT22;292;48.800;9.216;2022-10-31T02:04:47;14.60;85.20
610;DHT22;292;48.800;9.216;2022-10-31T02:07:18;14.60;85.20
610;DHT22;292;48.800;9.216;2022-10-31T02:09:47;14.60;85.20
610;DHT22;292;48.800;9.216;2022-10-31T02:12:16;14.60;85.20
610;DHT22;292;48.800;9.216;2022-10-31T02:14:44;14.60;85.20
610;DHT22;292;48.800;9.216;2022-10-31T02:17:11;14.60;85.10
610;DHT22;292;48.800;9.216;2022-10-31T02:19:44;14.60;85.10
610;DHT22;292;48.800;9.216;2022-10-31T02:22:20;14.60;85.10
610;DHT22;292;48.800;9.216;2022-10-31T02:25:03;14.50;85.10
610;DHT22;292;48.800;9.216;2022-10-31T02:27:56;14.50;85.10
610;DHT22;292;48.800;9.216;2022-10-31T02:30:30;14.50;85.20
610;DHT22;292;48.800;9.216;2022-10-31T02:33:15;14.60;85.10
610;DHT22;292;48.800;9.216;2022-10-31T02:35:52;14.60;84.90
610;DHT22;292;48.800;9.216;2022-10-31T02:38:28;14.60;84.80
610;DHT22;292;48.800;9.216;2022-10-31T02:41:01;14.60;84.90
610;DHT22;292;48.800;9.216;2022-10-31T02:43:36;14.60;84.80
610;DHT22;292;48.800;9.216;2022-10-31T02:46:11;14.70;84.80
610;DHT22;292;48.800;9.216;2022-10-31T02:48:44;14.70;84.70
610;DHT22;292;48.800;9.216;2022-10-31T02:51:12;14.70;84.50
610;DHT22;292;48.800;9.216;2022-10-31T02:53:40;14.70;84.40
610;DHT22;292;48.800;9.216;2022-10-31T02:56:11;14.70;84.40
610;DHT22;292;48.800;9.216;2022-10-31T02:58:43;14.70;84.20
610;DHT22;292;48.800;9.216;2022-10-31T03:01:26;14.70;84.20
610;DHT22;292;48.800;9.216;2022-10-31T03:04:26;14.70;84.10
610;DHT22;292;48.800;9.216;2022-10-31T03:07:00;14.70;83.90
610;DHT22;292;48.800;9.216;2022-10-31T03:09:37;14.70;83.90
610;DHT22;292;48.800;9.216;2022-10-31T03:12:09;14.70;83.80
610;DHT22;292;48.800;9.216;2022-10-31T03:14:42;14.60;83.90
610;DHT22;292;48.800;9.216;2022-10-31T03:17:15;14.60;83.90
610;DHT22;292;48.800;9.216;2022-10-31T03:19:48;14.60;83.80
610;DHT22;292;48.800;9.216;2022-10-31T03:22:19;14.60;84.10
610;DHT22;292;48.800;9.216;2022-10-31T03:24:48;14.50;83.90
610;DHT22;292;48.800;9.216;2022-10-31T03:27:18;14.50;83.90
610;DHT22;292;48.800;9.216;2022-10-31T03:29:47;14.50;83.80
610;DHT22;292;48.800;9.216;2022-10-31T03:32:18;14.50;83.80
610;DHT22;292;48.800;9.216;2022-10-31T03:34:49;14.50;83.60
610;DHT22;292;48.800;9.216;2022-10-31T03:37:19;14.50;83.50
610;DHT22;292;48.800;9.216;2022-10-31T03:39:48;14.50;83.50
610;DHT22;292;48.800;9.216;2022-10-31T03:42:18;14.50;83.20
610;DHT22;292;48.800;9.216;2022-10-31T03:44:52;14.50;83.20
610;DHT22;292;48.800;9.216;2022-10-31T03:47:20;14.50;83.10
610;DHT22;292;48.800;9.216;2022-10-31T03:49:49;14.50;83.10
610;DHT22;292;48.800;9.216;2022-10-31T03:52:22;14.50;82.90
610;DHT22;292;48.800;9.216;2022-10-31T03:54:55;14.50;82.90
610;DHT22;292;48.800;9.216;2022-10-31T03:57:28;14.50;82.80
610;DHT22;292;48.800;9.216;2022-10-31T04:00:00;14.50;82.80
610;DHT22;292;48.800;9.216;2022-10-31T04:02:30;14.50;82.80
610;DHT22;292;48.800;9.216;2022-10-31T04:05:00;14.50;82.80
610;DHT22;292;48.800;9.216;2022-10-31T04:07:31;14.50;82.90
610;DHT22;292;48.800;9.216;2022-10-31T04:10:02;14.50;82.80
610;DHT22;292;48.800;9.216;2022-10-31T04:12:31;14.50;82.60
610;DHT22;292;48.800;9.216;2022-10-31T04:15:00;14.40;82.80
610;DHT22;292;48.800;9.216;2022-10-31T04:17:35;14.40;82.50
610;DHT22;292;48.800;9.216;2022-10-31T04:20:07;14.40;82.60
610;DHT22;292;48.800;9.216;2022-10-31T04:22:34;14.40;82.50
610;DHT22;292;48.800;9.216;2022-10-31T04:25:01;14.30;82.50
610;DHT22;292;48.800;9.216;2022-10-31T04:27:28;14.30;82.60
610;DHT22;292;48.800;9.216;2022-10-31T04:29:55;14.30;82.50
610;DHT22;292;48.800;9.216;2022-10-31T04:32:22;14.30;82.60
610;DHT22;292;48.800;9.216;2022-10-31T04:34:49;14.30;82.50
610;DHT22;292;48.800;9.216;2022-10-31T04:37:17;14.30;82.60
610;DHT22;292;48.800;9.216;2022-10-31T04:39:44;14.30;82.60
610;DHT22;292;48.800;9.216;2022-10-31T04:42:11;14.30;82.60
610;DHT22;292;48.800;9.216;2022-10-31T04:44:38;14.20;82.50
610;DHT22;292;48.800;9.216;2022-10-31T04:47:05;14.20;82.50
610;DHT22;292;48.800;9.216;2022-10-31T04:49:32;14.20;82.40
610;DHT22;292;48.800;9.216;2022-10-31T04:51:59;14.10;82.50
610;DHT22;292;48.800;9.216;2022-10-31T04:54:27;14.10;82.60
610;DHT22;292;48.800;9.216;2022-10-31T04:56:54;14.10;82.60
610;DHT22;292;48.800;9.216;2022-10-31T04:59:21;14.10;82.50
610;DHT22;292;48.800;9.216;2022-10-31T05:01:48;14.00;82.60
610;DHT22;292;48.800;9.216;2022-10-31T05:04:15;14.00;82.60
610;DHT22;292;48.800;9.216;2022-10-31T05:06:42;13.90;82.60
610;DHT22;292;48.800;9.216;2022-10-31T05:09:09;13.90;82.80
610;DHT22;292;48.800;9.216;2022-10-31T05:11:38;13.80;82.90
610;DHT22;292;48.800;9.216;2022-10-31T05:14:05;13.80;83.10
610;DHT22;292;48.800;9.216;2022-10-31T05:16:32;13.80;83.10
610;DHT22;292;48.800;9.216;2022-10-31T05:18:59;13.80;83.10
610;DHT22;292;48.800;9.216;2022-10-31T05:21:26;13.70;83.20
610;DHT22;292;48.800;9.216;2022-10-31T05:23:53;13.80;83.40
610;DHT22;292;48.800;9.216;2022-10-31T05:26:20;13.80;83.40
610;DHT22;292;48.800;9.216;2022-10-31T05:28:48;13.80;83.40
610;DHT22;292;48.800;9.216;2022-10-31T05:31:16;13.80;83.40
610;DHT22;292;48.800;9.216;2022-10-31T05:33:42;13.80;83.40
610;DHT22;292;48.800;9.216;2022-10-31T05:36:09;13.80;83.40
610;DHT22;292;48.800;9.216;2022-10-31T05:38:37;13.70;83.20
610;DHT22;292;48.800;9.216;2022-10-31T05:41:04;13.70;83.50
610;DHT22;292;48.800;9.216;2022-10-31T05:43:31;13.70;83.60
610;DHT22;292;48.800;9.216;2022-10-31T05:46:00;13.60;83.60
610;DHT22;292;48.800;9.216;2022-10-31T05:48:27;13.60;83.60
610;DHT22;292;48.800;9.216;2022-10-31T05:50:54;13.60;83.80
610;DHT22;292;48.800;9.216;2022-10-31T05:53:21;13.60;83.80
610;DHT22;292;48.800;9.216;2022-10-31T05:55:48;13.60;83.60
610;DHT22;292;48.800;9.216;2022-10-31T05:58:15;13.60;83.60
610;DHT22;292;48.800;9.216;2022-10-31T06:00:41;13.50;83.60
610;DHT22;292;48.800;9.216;2022-10-31T06:03:11;13.50;83.80
610;DHT22;292;48.800;9.216;2022-10-31T06:05:38;13.50;83.60
610;DHT22;292;48.800;9.216;2022-10-31T06:08:05;13.40;83.80
610;DHT22;292;48.800;9.216;2022-10-31T06:10:32;13.40;83.80
610;DHT22;292;48.800;9.216;2022-10-31T06:12:59;13.30;83.90
610;DHT22;292;48.800;9.216;2022-10-31T06:15:26;13.30;83.90
610;DHT22;292;48.800;9.216;2022-10-31T06:18:01;13.30;84.10
610;DHT22;292;48.800;9.216;2022-10-31T06:20:30;13.30;84.10
610;DHT22;292;48.800;9.216;2022-10-31T06:22:57;13.30;84.20
610;DHT22;292;48.800;9.216;2022-10-31T06:25:24;13.30;84.10
610;DHT22;292;48.800;9.216;2022-10-31T06:27:51;13.20;84.40
610;DHT22;292;48.800;9.216;2022-10-31T06:30:18;13.20;84.50
610;DHT22;292;48.800;9.216;2022-10-31T06:32:45;13.20;84.70
610;DHT22;292;48.800;9.216;2022-10-31T06:35:12;13.10;84.70
610;DHT22;292;48.800;9.216;2022-10-31T06:37:41;13.10;84.90
610;DHT22;292;48.800;9.216;2022-10-31T06:40:09;13.00;84.90
610;DHT22;292;48.800;9.216;2022-10-31T06:42:36;13.00;84.90
610;DHT22;292;48.800;9.216;2022-10-31T06:45:03;13.00;85.10
610;DHT22;292;48.800;9.216;2022-10-31T06:47:30;12.90;85.10
610;DHT22;292;48.800;9.216;2022-10-31T06:49:58;12.90;85.20
610;DHT22;292;48.800;9.216;2022-10-31T06:52:24;12.90;85.20
610;DHT22;292;48.800;9.216;2022-10-31T06:54:53;12.90;85.20
610;DHT22;292;48.800;9.216;2022-10-31T06:57:20;12.90;85.10
610;DHT22;292;48.800;9.216;2022-10-31T06:59:47;12.90;84.90
610;DHT22;292;48.800;9.216;2022-10-31T07:02:14;12.80;84.90
610;DHT22;292;48.800;9.216;2022-10-31T07:04:41;12.80;84.90
610;DHT22;292;48.800;9.216;2022-10-31T07:07:08;12.80;84.90
610;DHT22;292;48.800;9.216;2022-10-31T07:09:35;12.80;84.90
610;DHT22;292;48.800;9.216;2022-10-31T07:12:04;12.80;84.80
610;DHT22;292;48.800;9.216;2022-10-31T07:14:31;12.80;84.80
610;DHT22;292;48.800;9.216;2022-10-31T07:16:58;12.80;84.80
610;DHT22;292;48.800;9.216;2022-10-31T07:19:25;12.80;84.90
610;DHT22;292;48.800;9.216;2022-10-31T07:21:52;12.80;84.90
610;DHT22;292;48.800;9.216;2022-10-31T07:24:19;12.80;84.90
610;DHT22;292;48.800;9.216;2022-10-31T07:26:46;12.80;85.10
610;DHT22;292;48.800;9.216;2022-10-31T07:29:15;12.90;84.90
610;DHT22;292;48.800;9.216;2022-10-31T07:31:42;12.90;84.90
610;DHT22;292;48.800;9.216;2022-10-31T07:34:12;12.90;84.90
610;DHT22;292;48.800;9.216;2022-10-31T07:36:38;12.90;84.80
610;DHT22;292;48.800;9.216;2022-10-31T07:39:06;12.90;84.70
610;DHT22;292;48.800;9.216;2022-10-31T07:41:32;12.90;84.70
610;DHT22;292;48.800;9.216;2022-10-31T07:43:59;12.90;84.80
610;DHT22;292;48.800;9.216;2022-10-31T07:46:28;12.90;84.80
610;DHT22;292;48.800;9.216;2022-10-31T07:48:55;13.00;84.80
610;DHT22;292;48.800;9.216;2022-10-31T07:51:22;13.00;84.80
610;DHT22;292;48.800;9.216;2022-10-31T07:53:49;13.00;84.50
610;DHT22;292;48.800;9.216;2022-10-31T07:56:16;13.10;84.70
610;DHT22;292;48.800;9.216;2022-10-31T07:58:43;13.10;84.50
610;DHT22;292;48.800;9.216;2022-10-31T08:01:10;13.20;84.50
610;DHT22;292;48.800;9.216;2022-10-31T08:03:38;13.20;84.50
610;DHT22;292;48.800;9.216;2022-10-31T08:06:06;13.30;84.20
610;DHT22;292;48.800;9.216;2022-10-31T08:08:33;13.40;84.10
610;DHT22;292;48.800;9.216;2022-10-31T08:11:00;13.40;84.10
610;DHT22;292;48.800;9.216;2022-10-31T08:13:27;13.50;83.90
610;DHT22;292;48.800;9.216;2022-10-31T08:15:54;13.60;83.80
610;DHT22;292;48.800;9.216;2022-10-31T08:18:21;13.70;83.60
610;DHT22;292;48.800;9.216;2022-10-31T08:20:50;13.70;83.40
610;DHT22;292;48.800;9.216;2022-10-31T08:23:17;13.80;82.90
610;DHT22;292;48.800;9.216;2022-10-31T08:25:44;13.80;82.80
610;DHT22;292;48.800;9.216;2022-10-31T08:28:13;13.90;82.40
610;DHT22;292;48.800;9.216;2022-10-31T08:30:41;14.00;82.40
610;DHT22;292;48.800;9.216;2022-10-31T08:33:10;14.00;82.10
610;DHT22;292;48.800;9.216;2022-10-31T08:35:37;14.00;82.00
610;DHT22;292;48.800;9.216;2022-10-31T08:38:06;14.10;81.90
610;DHT22;292;48.800;9.216;2022-10-31T08:40:34;14.20;81.70
610;DHT22;292;48.800;9.216;2022-10-31T08:43:04;14.20;81.30
610;DHT22;292;48.800;9.216;2022-10-31T08:45:32;14.30;81.00
610;DHT22;292;48.800;9.216;2022-10-31T08:48:01;14.30;80.90
610;DHT22;292;48.800;9.216;2022-10-31T08:50:29;14.40;80.70
610;DHT22;292;48.800;9.216;2022-10-31T08:53:01;14.40;80.60
610;DHT22;292;48.800;9.216;2022-10-31T08:55:29;14.50;80.40
610;DHT22;292;48.800;9.216;2022-10-31T08:57:57;14.60;80.30
610;DHT22;292;48.800;9.216;2022-10-31T09:00:25;14.60;80.00
610;DHT22;292;48.800;9.216;2022-10-31T09:02:56;14.70;79.90
610;DHT22;292;48.800;9.216;2022-10-31T09:05:23;14.80;79.60
610;DHT22;292;48.800;9.216;2022-10-31T09:07:55;14.90;79.40
610;DHT22;292;48.800;9.216;2022-10-31T09:10:23;15.00;79.10
610;DHT22;292;48.800;9.216;2022-10-31T09:12:56;15.00;79.00
610;DHT22;292;48.800;9.216;2022-10-31T09:15:24;15.10;78.80
610;DHT22;292;48.800;9.216;2022-10-31T09:17:51;15.20;78.60
610;DHT22;292;48.800;9.216;2022-10-31T09:20:19;15.30;78.40
610;DHT22;292;48.800;9.216;2022-10-31T09:22:46;15.30;78.10
610;DHT22;292;48.800;9.216;2022-10-31T09:25:13;15.40;77.80
610;DHT22;292;48.800;9.216;2022-10-31T09:27:40;15.50;77.40
610;DHT22;292;48.800;9.216;2022-10-31T09:30:10;15.50;77.40
610;DHT22;292;48.800;9.216;2022-10-31T09:32:37;15.60;77.30
610;DHT22;292;48.800;9.216;2022-10-31T09:35:04;15.60;77.10
610;DHT22;292;48.800;9.216;2022-10-31T09:37:32;15.70;77.00
610;DHT22;292;48.800;9.216;2022-10-31T09:39:59;15.70;77.00
610;DHT22;292;48.800;9.216;2022-10-31T09:42:38;15.80;76.50
610;DHT22;292;48.800;9.216;2022-10-31T09:45:15;15.90;76.40
610;DHT22;292;48.800;9.216;2022-10-31T09:47:59;15.90;76.20
610;DHT22;292;48.800;9.216;2022-10-31T09:50:36;16.00;76.10
610;DHT22;292;48.800;9.216;2022-10-31T09:53:23;16.00;76.10
610;DHT22;292;48.800;9.216;2022-10-31T09:55:51;16.10;75.80
610;DHT22;292;48.800;9.216;2022-10-31T09:58:20;16.10;75.70
610;DHT22;292;48.800;9.216;2022-10-31T10:00:52;16.20;75.40
610;DHT22;292;48.800;9.216;2022-10-31T10:03:27;16.20;75.20
610;DHT22;292;48.800;9.216;2022-10-31T10:06:01;16.20;75.00
610;DHT22;292;48.800;9.216;2022-10-31T10:08:32;16.30;74.80
610;DHT22;292;48.800;9.216;2022-10-31T10:11:22;16.30;74.70
610;DHT22;292;48.800;9.216;2022-10-31T10:14:01;16.40;74.80
610;DHT22;292;48.800;9.216;2022-10-31T10:16:44;16.40;74.70
610;DHT22;292;48.800;9.216;2022-10-31T10:19:24;16.50;74.50
610;DHT22;292;48.800;9.216;2022-10-31T10:21:59;16.50;74.50
610;DHT22;292;48.800;9.216;2022-10-31T10:24:39;16.60;74.40
610;DHT22;292;48.800;9.216;2022-10-31T10:27:16;16.60;74.40
610;DHT22;292;48.800;9.216;2022-10-31T10:29:49;16.70;74.20
610;DHT22;292;48.800;9.216;2022-10-31T10:32:23;16.70;74.10
610;DHT22;292;48.800;9.216;2022-10-31T10:34:53;16.80;73.90
610;DHT22;292;48.800;9.216;2022-10-31T10:37:26;16.80;73.80
610;DHT22;292;48.800;9.216;2022-10-31T10:40:07;16.90;73.70
610;DHT22;292;48.800;9.216;2022-10-31T10:42:35;17.00;73.40
610;DHT22;292;48.800;9.216;2022-10-31T10:45:20;17.00;73.20
610;DHT22;292;48.800;9.216;2022-10-31T10:48:12;17.00;73.10
610;DHT22;292;48.800;9.216;2022-10-31T10:50:44;17.10;73.10
610;DHT22;292;48.800;9.216;2022-10-31T10:53:37;17.10;73.10
610;DHT22;292;48.800;9.216;2022-10-31T10:56:34;17.20;72.90
610;DHT22;292;48.800;9.216;2022-10-31T10:59:03;17.20;72.90
610;DHT22;292;48.800;9.216;2022-10-31T11:01:30;17.20;72.60
610;DHT22;292;48.800;9.216;2022-10-31T11:04:00;17.20;72.60
610;DHT22;292;48.800;9.216;2022-10-31T11:06:28;17.30;72.60
610;DHT22;292;48.800;9.216;2022-10-31T11:08:55;17.30;72.50
610;DHT22;292;48.800;9.216;2022-10-31T11:11:27;17.30;72.50
610;DHT22;292;48.800;9.216;2022-10-31T11:14:00;17.40;72.50
610;DHT22;292;48.800;9.216;2022-10-31T11:16:31;17.40;72.50
610;DHT22;292;48.800;9.216;2022-10-31T11:19:13;17.40;72.40
610;DHT22;292;48.800;9.216;2022-10-31T11:21:42;17.40;72.40
610;DHT22;292;48.800;9.216;2022-10-31T11:24:14;17.50;72.40
610;DHT22;292;48.800;9.216;2022-10-31T11:26:43;17.50;72.20
610;DHT22;292;48.800;9.216;2022-10-31T11:29:14;17.60;72.20
610;DHT22;292;48.800;9.216;2022-10-31T11:31:43;17.70;72.20
610;DHT22;292;48.800;9.216;2022-10-31T11:34:23;17.70;72.10
610;DHT22;292;48.800;9.216;2022-10-31T11:36:53;17.80;71.90
610;DHT22;292;48.800;9.216;2022-10-31T11:39:22;17.90;71.80
610;DHT22;292;48.800;9.216;2022-10-31T11:41:52;18.00;71.60
610;DHT22;292;48.800;9.216;2022-10-31T11:44:22;18.10;71.50
610;DHT22;292;48.800;9.216;2022-10-31T11:46:51;18.20;71.30
610;DHT22;292;48.800;9.216;2022-10-31T11:49:26;18.30;71.20
610;DHT22;292;48.800;9.216;2022-10-31T11:51:56;18.40;71.20
610;DHT22;292;48.800;9.216;2022-10-31T11:54:27;18.50;71.10
610;DHT22;292;48.800;9.216;2022-10-31T11:56:55;18.50;70.80
610;DHT22;292;48.800;9.216;2022-10-31T11:59:25;18.60;70.60
610;DHT22;292;48.800;9.216;2022-10-31T12:01:55;18.70;70.60
610;DHT22;292;48.800;9.216;2022-10-31T12:04:31;18.80;70.30
610;DHT22;292;48.800;9.216;2022-10-31T12:06:59;18.80;69.90
610;DHT22;292;48.800;9.216;2022-10-31T12:09:28;18.90;69.80
610;DHT22;292;48.800;9.216;2022-10-31T12:12:10;18.90;69.80
610;DHT22;292;48.800;9.216;2022-10-31T12:14:49;19.00;69.60
610;DHT22;292;48.800;9.216;2022-10-31T12:17:19;19.00;69.50
610;DHT22;292;48.800;9.216;2022-10-31T12:19:59;19.10;69.50
610;DHT22;292;48.800;9.216;2022-10-31T12:22:36;19.10;69.20
610;DHT22;292;48.800;9.216;2022-10-31T12:25:28;19.20;69.20
610;DHT22;292;48.800;9.216;2022-10-31T12:28:07;19.30;69.00
610;DHT22;292;48.800;9.216;2022-10-31T12:30:48;19.30;68.90
610;DHT22;292;48.800;9.216;2022-10-31T12:33:29;19.40;68.60
610;DHT22;292;48.800;9.216;2022-10-31T12:36:11;19.50;68.30
610;DHT22;292;48.800;9.216;2022-10-31T12:38:49;19.50;67.70
610;DHT22;292;48.800;9.216;2022-10-31T12:41:31;19.60;67.50
610;DHT22;292;48.800;9.216;2022-10-31T12:44:06;19.60;67.20
610;DHT22;292;48.800;9.216;2022-10-31T12:46:59;19.60;67.00
610;DHT22;292;48.800;9.216;2022-10-31T12:49:47;19.60;66.90
610;DHT22;292;48.800;9.216;2022-10-31T12:52:37;19.70;66.70
610;DHT22;292;48.800;9.216;2022-10-31T12:55:18;19.70;66.60
610;DHT22;292;48.800;9.216;2022-10-31T12:57:50;19.70;66.60
610;DHT22;292;48.800;9.216;2022-10-31T13:00:19;19.70;66.40
610;DHT22;292;48.800;9.216;2022-10-31T13:02:50;19.70;66.40
610;DHT22;292;48.800;9.216;2022-10-31T13:05:23;19.70;66.30
610;DHT22;292;48.800;9.216;2022-10-31T13:07:57;19.70;66.20
610;DHT22;292;48.800;9.216;2022-10-31T13:10:29;19.70;66.20
610;DHT22;292;48.800;9.216;2022-10-31T13:13:00;19.70;66.00
610;DHT22;292;48.800;9.216;2022-10-31T13:15:32;19.70;66.00
610;DHT22;292;48.800;9.216;2022-10-31T13:18:04;19.70;65.90
610;DHT22;292;48.800;9.216;2022-10-31T13:20:37;19.70;65.90
610;DHT22;292;48.800;9.216;2022-10-31T13:23:14;19.70;65.70
610;DHT22;292;48.800;9.216;2022-10-31T13:25:52;19.70;65.70
610;DHT22;292;48.800;9.216;2022-10-31T13:28:25;19.70;65.60
610;DHT22;292;48.800;9.216;2022-10-31T13:30:55;19.70;65.60
610;DHT22;292;48.800;9.216;2022-10-31T13:33:25;19.70;65.60
610;DHT22;292;48.800;9.216;2022-10-31T13:36:14;19.70;65.60
610;DHT22;292;48.800;9.216;2022-10-31T13:38:49;19.60;65.40
610;DHT22;292;48.800;9.216;2022-10-31T13:41:28;19.60;65.40
610;DHT22;292;48.800;9.216;2022-10-31T13:44:06;19.70;65.60
610;DHT22;292;48.800;9.216;2022-10-31T13:46:38;19.70;65.90
610;DHT22;292;48.800;9.216;2022-10-31T13:49:24;19.70;66.20
610;DHT22;292;48.800;9.216;2022-10-31T13:51:52;19.70;66.30
610;DHT22;292;48.800;9.216;2022-10-31T13:54:31;19.80;66.30
610;DHT22;292;48.800;9.216;2022-10-31T13:56:59;19.80;66.30
610;DHT22;292;48.800;9.216;2022-10-31T13:59:27;19.90;66.20
610;DHT22;292;48.800;9.216;2022-10-31T14:01:58;19.90;66.00
610;DHT22;292;48.800;9.216;2022-10-31T14:04:28;20.00;65.90
610;DHT22;292;48.800;9.216;2022-10-31T14:07:05;20.00;65.70
610;DHT22;292;48.800;9.216;2022-10-31T14:09:36;20.10;65.70
610;DHT22;292;48.800;9.216;2022-10-31T14:12:07;20.10;65.60
610;DHT22;292;48.800;9.216;2022-10-31T14:14:45;20.10;65.60
610;DHT22;292;48.800;9.216;2022-10-31T14:17:18;20.20;65.40
610;DHT22;292;48.800;9.216;2022-10-31T14:19:58;20.20;65.40
610;DHT22;292;48.800;9.216;2022-10-31T14:22:29;20.20;65.40
610;DHT22;292;48.800;9.216;2022-10-31T14:24:58;20.20;65.30
610;DHT22;292;48.800;9.216;2022-10-31T14:27:45;20.30;65.30
610;DHT22;292;48.800;9.216;2022-10-31T14:30:18;20.30;65.10
610;DHT22;292;48.800;9.216;2022-10-31T14:32:51;20.30;65.10
610;DHT22;292;48.800;9.216;2022-10-31T14:35:20;20.30;65.10
610;DHT22;292;48.800;9.216;2022-10-31T14:38:08;20.30;65.00
610;DHT22;292;48.800;9.216;2022-10-31T14:41:02;20.30;65.00
610;DHT22;292;48.800;9.216;2022-10-31T14:46:34;20.30;64.90
610;DHT22;292;48.800;9.216;2022-10-31T14:49:26;20.30;64.90
610;DHT22;292;48.800;9.216;2022-10-31T14:51:58;20.30;64.90
610;DHT22;292;48.800;9.216;2022-10-31T14:54:29;20.30;65.00
610;DHT22;292;48.800;9.216;2022-10-31T14:57:01;20.30;65.00
610;DHT22;292;48.800;9.216;2022-10-31T14:59:32;20.30;65.10
610;DHT22;292;48.800;9.216;2022-10-31T15:02:09;20.30;65.10
610;DHT22;292;48.800;9.216;2022-10-31T15:04:39;20.30;65.10
610;DHT22;292;48.800;9.216;2022-10-31T15:07:12;20.30;65.10
610;DHT22;292;48.800;9.216;2022-10-31T15:09:41;20.30;65.30
610;DHT22;292;48.800;9.216;2022-10-31T15:12:32;20.20;65.30
610;DHT22;292;48.800;9.216;2022-10-31T15:15:11;20.20;65.60
610;DHT22;292;48.800;9.216;2022-10-31T15:17:44;20.20;65.70
610;DHT22;292;48.800;9.216;2022-10-31T15:20:11;20.20;66.00
610;DHT22;292;48.800;9.216;2022-10-31T15:22:39;20.20;66.30
610;DHT22;292;48.800;9.216;2022-10-31T15:25:14;20.20;66.30
610;DHT22;292;48.800;9.216;2022-10-31T15:27:46;20.20;66.40
610;DHT22;292;48.800;9.216;2022-10-31T15:30:18;20.10;66.60
610;DHT22;292;48.800;9.216;2022-10-31T15:32:47;20.10;66.70
610;DHT22;292;48.800;9.216;2022-10-31T15:35:23;20.10;66.70
610;DHT22;292;48.800;9.216;2022-10-31T15:37:52;20.10;66.70
610;DHT22;292;48.800;9.216;2022-10-31T15:40:22;20.00;66.70
610;DHT22;292;48.800;9.216;2022-10-31T15:42:53;20.00;66.90
610;DHT22;292;48.800;9.216;2022-10-31T15:45:23;20.00;66.90
610;DHT22;292;48.800;9.216;2022-10-31T15:47:55;20.00;67.20
610;DHT22;292;48.800;9.216;2022-10-31T15:50:33;20.00;67.30
610;DHT22;292;48.800;9.216;2022-10-31T15:53:01;19.90;67.60
610;DHT22;292;48.800;9.216;2022-10-31T15:55:33;19.90;67.60
610;DHT22;292;48.800;9.216;2022-10-31T15:58:10;19.80;67.70
610;DHT22;292;48.800;9.216;2022-10-31T16:00:38;19.80;67.90
610;DHT22;292;48.800;9.216;2022-10-31T16:03:07;19.80;68.00
610;DHT22;292;48.800;9.216;2022-10-31T16:05:38;19.70;68.20
610;DHT22;292;48.800;9.216;2022-10-31T16:08:24;19.70;68.30
610;DHT22;292;48.800;9.216;2022-10-31T16:10:52;19.70;68.50
610;DHT22;292;48.800;9.216;2022-10-31T16:13:24;19.60;68.60
610;DHT22;292;48.800;9.216;2022-10-31T16:15:55;19.60;68.70
610;DHT22;292;48.800;9.216;2022-10-31T16:18:23;19.60;68.70
610;DHT22;292;48.800;9.216;2022-10-31T16:20:53;19.50;68.90
610;DHT22;292;48.800;9.216;2022-10-31T16:23:22;19.40;69.30
610;DHT22;292;48.800;9.216;2022-10-31T16:25:50;19.40;69.60
610;DHT22;292;48.800;9.216;2022-10-31T16:28:19;19.40;69.90
610;DHT22;292;48.800;9.216;2022-10-31T16:30:49;19.30;70.00
610;DHT22;292;48.800;9.216;2022-10-31T16:33:24;19.30;70.20
610;DHT22;292;48.800;9.216;2022-10-31T16:35:52;19.20;70.30
610;DHT22;292;48.800;9.216;2022-10-31T16:38:19;19.10;70.60
610;DHT22;292;48.800;9.216;2022-10-31T16:40:46;19.10;70.90
610;DHT22;292;48.800;9.216;2022-10-31T16:43:14;19.10;71.10
610;DHT22;292;48.800;9.216;2022-10-31T16:45:44;19.00;71.20
610;DHT22;292;48.800;9.216;2022-10-31T16:48:14;19.00;71.50
610;DHT22;292;48.800;9.216;2022-10-31T16:50:43;18.90;71.50
610;DHT22;292;48.800;9.216;2022-10-31T16:53:12;18.90;71.60
610;DHT22;292;48.800;9.216;2022-10-31T16:55:43;18.80;71.80
610;DHT22;292;48.800;9.216;2022-10-31T16:58:15;18.80;71.90
610;DHT22;292;48.800;9.216;2022-10-31T17:00:43;18.70;72.20
610;DHT22;292;48.800;9.216;2022-10-31T17:03:12;18.70;72.40